Terminal Aerodrome Forecast
Issued by NWS

Home | Current Version | Previous Version | Graphics & Text | Print | Product List | Glossary On
Versions: 1 2 3 4 5 6 7 8 9 10 11 12 13 14 15 16
000
FTUS43 KGRB 211700
TAFATW
TAF
KATW 211730Z 2118/2218 26008KT P6SM VCSH SCT040 OVC080
      TEMPO 2118/2122 3SM -SHRA BR BKN025 OVC040
     FM212200 32012KT P6SM SCT025 BKN040
     FM220200 33013G21KT P6SM SCT025
     FM220900 31012G20KT P6SM OVC030
     FM221500 33017G24KT P6SM BKN040=

USA.gov is the U.S. government's official web portal to all federal, state and local government web resources and services.